sensor_id;sensor_type;location;lat;lon;timestamp;pressure;altitude;pressure_sealevel;temperature;humidity
51245;BME280;37840;47.562;18.738;2023-05-14T00:00:44;100153.47;;;12.18;82.19
51245;BME280;37840;47.562;18.738;2023-05-14T00:03:12;100156.00;;;12.19;82.04
51245;BME280;37840;47.562;18.738;2023-05-14T00:05:38;100145.31;;;12.19;81.39
51245;BME280;37840;47.562;18.738;2023-05-14T00:08:04;100140.53;;;12.24;80.75
51245;BME280;37840;47.562;18.738;2023-05-14T00:10:30;100145.03;;;12.24;80.18
51245;BME280;37840;47.562;18.738;2023-05-14T00:12:56;100135.75;;;12.17;80.45
51245;BME280;37840;47.562;18.738;2023-05-14T00:15:21;100131.91;;;12.21;80.69
51245;BME280;37840;47.562;18.738;2023-05-14T00:17:47;100126.78;;;12.18;81.00
51245;BME280;37840;47.562;18.738;2023-05-14T00:20:13;100131.06;;;12.20;80.80
51245;BME280;37840;47.562;18.738;2023-05-14T00:22:39;100128.41;;;12.08;81.17
51245;BME280;37840;47.562;18.738;2023-05-14T00:25:06;100126.50;;;12.10;81.24
51245;BME280;37840;47.562;18.738;2023-05-14T00:27:33;100123.91;;;12.08;81.57
51245;BME280;37840;47.562;18.738;2023-05-14T00:29:59;100120.00;;;12.01;81.61
51245;BME280;37840;47.562;18.738;2023-05-14T00:32:25;100120.50;;;12.06;81.54
51245;BME280;37840;47.562;18.738;2023-05-14T00:34:51;100118.37;;;11.98;81.12
51245;BME280;37840;47.562;18.738;2023-05-14T00:37:17;100118.19;;;11.89;81.80
51245;BME280;37840;47.562;18.738;2023-05-14T00:39:43;100116.25;;;11.78;82.07
51245;BME280;37840;47.562;18.738;2023-05-14T00:42:08;100113.03;;;11.86;81.89
51245;BME280;37840;47.562;18.738;2023-05-14T00:44:35;100109.44;;;11.87;81.85
51245;BME280;37840;47.562;18.738;2023-05-14T00:47:00;100105.28;;;11.82;81.82
51245;BME280;37840;47.562;18.738;2023-05-14T00:49:29;100108.88;;;11.81;81.46
51245;BME280;37840;47.562;18.738;2023-05-14T00:51:55;100109.97;;;11.92;81.22
51245;BME280;37840;47.562;18.738;2023-05-14T00:54:23;100108.47;;;12.00;81.15
51245;BME280;37840;47.562;18.738;2023-05-14T00:56:50;100104.00;;;12.01;80.69
51245;BME280;37840;47.562;18.738;2023-05-14T00:59:16;100112.22;;;11.98;80.68
51245;BME280;37840;47.562;18.738;2023-05-14T01:01:42;100102.53;;;11.97;80.69
51245;BME280;37840;47.562;18.738;2023-05-14T01:04:08;100094.94;;;12.03;80.04
51245;BME280;37840;47.562;18.738;2023-05-14T01:09:25;100094.09;;;12.03;80.30
51245;BME280;37840;47.562;18.738;2023-05-14T01:17:17;100084.03;;;12.07;79.92
51245;BME280;37840;47.562;18.738;2023-05-14T01:19:46;100076.34;;;12.15;79.58
51245;BME280;37840;47.562;18.738;2023-05-14T01:22:12;100078.28;;;12.13;79.33
51245;BME280;37840;47.562;18.738;2023-05-14T01:24:39;100079.25;;;12.12;79.41
51245;BME280;37840;47.562;18.738;2023-05-14T01:29:42;100068.16;;;12.18;78.94
51245;BME280;37840;47.562;18.738;2023-05-14T01:32:12;100062.69;;;12.19;79.03
51245;BME280;37840;47.562;18.738;2023-05-14T01:34:38;100053.94;;;12.17;79.24
51245;BME280;37840;47.562;18.738;2023-05-14T01:37:05;100052.00;;;12.19;78.88
51245;BME280;37840;47.562;18.738;2023-05-14T01:39:34;100050.31;;;12.18;79.71
51245;BME280;37840;47.562;18.738;2023-05-14T01:42:03;100044.00;;;12.19;79.29
51245;BME280;37840;47.562;18.738;2023-05-14T01:44:29;100045.09;;;12.17;79.17
51245;BME280;37840;47.562;18.738;2023-05-14T01:46:55;100039.66;;;12.18;78.26
51245;BME280;37840;47.562;18.738;2023-05-14T01:49:21;100032.75;;;12.16;78.50
51245;BME280;37840;47.562;18.738;2023-05-14T01:51:47;100026.13;;;12.09;78.85
51245;BME280;37840;47.562;18.738;2023-05-14T01:54:13;100018.03;;;12.10;78.64
51245;BME280;37840;47.562;18.738;2023-05-14T01:56:39;100023.03;;;12.15;78.36
51245;BME280;37840;47.562;18.738;2023-05-14T01:59:05;100006.97;;;12.03;78.46
51245;BME280;37840;47.562;18.738;2023-05-14T02:01:31;100022.44;;;11.98;78.87
51245;BME280;37840;47.562;18.738;2023-05-14T02:03:58;100014.13;;;12.03;78.74
51245;BME280;37840;47.562;18.738;2023-05-14T02:06:25;100023.81;;;12.04;78.96
51245;BME280;37840;47.562;18.738;2023-05-14T02:08:52;100014.13;;;12.03;79.40
51245;BME280;37840;47.562;18.738;2023-05-14T02:11:18;100015.59;;;12.07;79.43
51245;BME280;37840;47.562;18.738;2023-05-14T02:13:44;100017.19;;;12.10;78.94
51245;BME280;37840;47.562;18.738;2023-05-14T02:16:09;100014.19;;;12.14;79.32
51245;BME280;37840;47.562;18.738;2023-05-14T02:18:35;100009.66;;;12.03;79.26
51245;BME280;37840;47.562;18.738;2023-05-14T02:21:01;100010.16;;;12.09;79.11
51245;BME280;37840;47.562;18.738;2023-05-14T02:23:27;100001.19;;;12.10;78.53
51245;BME280;37840;47.562;18.738;2023-05-14T02:25:53;100001.41;;;12.07;78.46
51245;BME280;37840;47.562;18.738;2023-05-14T02:28:19;99996.72;;;12.10;78.66
51245;BME280;37840;47.562;18.738;2023-05-14T02:30:45;99992.84;;;12.14;78.12
51245;BME280;37840;47.562;18.738;2023-05-14T02:33:11;99986.91;;;12.11;78.15
51245;BME280;37840;47.562;18.738;2023-05-14T02:35:36;99992.66;;;12.04;79.05
51245;BME280;37840;47.562;18.738;2023-05-14T02:38:02;99996.94;;;12.07;79.73
51245;BME280;37840;47.562;18.738;2023-05-14T02:40:28;99983.00;;;12.03;79.70
51245;BME280;37840;47.562;18.738;2023-05-14T02:42:54;99981.06;;;12.06;79.31
51245;BME280;37840;47.562;18.738;2023-05-14T02:45:20;99981.06;;;12.06;78.28
51245;BME280;37840;47.562;18.738;2023-05-14T02:47:46;99981.84;;;11.95;79.40
51245;BME280;37840;47.562;18.738;2023-05-14T02:50:12;99971.06;;;11.96;79.38
51245;BME280;37840;47.562;18.738;2023-05-14T02:52:38;99978.31;;;11.81;79.49
51245;BME280;37840;47.562;18.738;2023-05-14T02:55:04;99982.69;;;11.82;79.89
51245;BME280;37840;47.562;18.738;2023-05-14T02:57:30;99979.53;;;11.77;80.60
51245;BME280;37840;47.562;18.738;2023-05-14T02:59:56;99978.66;;;11.77;80.25
51245;BME280;37840;47.562;18.738;2023-05-14T03:02:22;99976.00;;;11.77;79.96
51245;BME280;37840;47.562;18.738;2023-05-14T03:04:48;99975.03;;;11.78;80.70
51245;BME280;37840;47.562;18.738;2023-05-14T03:07:15;99968.13;;;11.75;80.69
51245;BME280;37840;47.562;18.738;2023-05-14T03:09:41;99978.78;;;11.75;80.56
51245;BME280;37840;47.562;18.738;2023-05-14T03:12:07;99978.44;;;11.80;80.30
51245;BME280;37840;47.562;18.738;2023-05-14T03:14:33;99978.91;;;11.74;80.47
51245;BME280;37840;47.562;18.738;2023-05-14T03:16:59;99982.59;;;11.84;80.31
51245;BME280;37840;47.562;18.738;2023-05-14T03:19:25;99983.59;;;11.70;80.50
51245;BME280;37840;47.562;18.738;2023-05-14T03:21:50;99981.28;;;11.53;81.10
51245;BME280;37840;47.562;18.738;2023-05-14T03:24:16;99983.72;;;11.56;81.26
51245;BME280;37840;47.562;18.738;2023-05-14T03:26:42;99983.09;;;11.52;80.76
51245;BME280;37840;47.562;18.738;2023-05-14T03:29:08;99980.00;;;11.58;80.52
51245;BME280;37840;47.562;18.738;2023-05-14T03:31:35;99979.38;;;11.55;81.25
51245;BME280;37840;47.562;18.738;2023-05-14T03:34:01;99981.59;;;11.61;79.92
51245;BME280;37840;47.562;18.738;2023-05-14T03:36:27;99979.78;;;11.49;79.88
51245;BME280;37840;47.562;18.738;2023-05-14T03:38:53;99977.53;;;11.55;79.90
51245;BME280;37840;47.562;18.738;2023-05-14T03:41:19;99986.19;;;11.59;79.95
51245;BME280;37840;47.562;18.738;2023-05-14T03:43:46;99987.13;;;11.58;79.81
51245;BME280;37840;47.562;18.738;2023-05-14T03:46:12;99989.69;;;11.59;80.54
51245;BME280;37840;47.562;18.738;2023-05-14T03:48:38;99997.38;;;11.51;80.57
51245;BME280;37840;47.562;18.738;2023-05-14T03:51:04;99993.34;;;11.46;80.74
51245;BME280;37840;47.562;18.738;2023-05-14T03:53:30;100011.09;;;11.45;80.46
51245;BME280;37840;47.562;18.738;2023-05-14T03:55:56;100007.28;;;11.49;80.61
51245;BME280;37840;47.562;18.738;2023-05-14T03:58:21;100001.94;;;11.49;80.54
51245;BME280;37840;47.562;18.738;2023-05-14T04:00:47;99998.84;;;11.55;80.60
51245;BME280;37840;47.562;18.738;2023-05-14T04:03:13;99990.78;;;11.44;80.77
51245;BME280;37840;47.562;18.738;2023-05-14T04:05:39;99993.63;;;11.54;80.86
51245;BME280;37840;47.562;18.738;2023-05-14T04:08:05;99996.72;;;11.60;80.87
51245;BME280;37840;47.562;18.738;2023-05-14T04:10:31;100003.75;;;11.61;80.83
51245;BME280;37840;47.562;18.738;2023-05-14T04:12:57;99995.00;;;11.59;79.97
51245;BME280;37840;47.562;18.738;2023-05-14T04:15:23;99989.69;;;11.59;79.68
51245;BME280;37840;47.562;18.738;2023-05-14T04:17:49;99986.69;;;11.64;79.98
51245;BME280;37840;47.562;18.738;2023-05-14T04:20:15;99972.28;;;11.67;80.03
51245;BME280;37840;47.562;18.738;2023-05-14T04:22:41;99962.09;;;11.60;79.92
51245;BME280;37840;47.562;18.738;2023-05-14T04:25:07;99962.50;;;11.67;79.70
51245;BME280;37840;47.562;18.738;2023-05-14T04:27:33;99956.88;;;11.59;79.84
51245;BME280;37840;47.562;18.738;2023-05-14T04:29:59;99961.91;;;11.51;80.67
51245;BME280;37840;47.562;18.738;2023-05-14T04:32:25;99958.59;;;11.47;81.45
51245;BME280;37840;47.562;18.738;2023-05-14T04:34:51;99964.66;;;11.49;81.23
51245;BME280;37840;47.562;18.738;2023-05-14T04:37:17;99969.25;;;11.47;81.27
51245;BME280;37840;47.562;18.738;2023-05-14T04:39:43;99975.53;;;11.59;80.99
51245;BME280;37840;47.562;18.738;2023-05-14T04:42:08;99972.09;;;11.70;80.79
51245;BME280;37840;47.562;18.738;2023-05-14T04:44:35;99977.47;;;11.81;79.10
51245;BME280;37840;47.562;18.738;2023-05-14T04:47:02;99974.47;;;11.86;79.70
51245;BME280;37840;47.562;18.738;2023-05-14T04:49:29;99968.97;;;11.89;79.53
51245;BME280;37840;47.562;18.738;2023-05-14T04:51:55;99965.53;;;11.87;79.35
51245;BME280;37840;47.562;18.738;2023-05-14T04:54:21;99970.97;;;11.85;79.57
51245;BME280;37840;47.562;18.738;2023-05-14T04:56:47;99968.00;;;11.90;79.86
51245;BME280;37840;47.562;18.738;2023-05-14T04:59:13;99969.03;;;11.87;79.68
51245;BME280;37840;47.562;18.738;2023-05-14T05:01:39;99966.47;;;11.86;79.73
51245;BME280;37840;47.562;18.738;2023-05-14T05:04:05;99964.56;;;11.88;80.14
51245;BME280;37840;47.562;18.738;2023-05-14T05:06:31;99962.34;;;11.81;80.12
51245;BME280;37840;47.562;18.738;2023-05-14T05:08:57;99966.84;;;11.68;81.12
51245;BME280;37840;47.562;18.738;2023-05-14T05:11:23;99973.81;;;11.45;80.88
51245;BME280;37840;47.562;18.738;2023-05-14T05:13:49;99978.63;;;11.40;80.58
51245;BME280;37840;47.562;18.738;2023-05-14T05:16:15;99969.25;;;11.34;81.78
51245;BME280;37840;47.562;18.738;2023-05-14T05:18:41;99972.81;;;11.35;81.81
51245;BME280;37840;47.562;18.738;2023-05-14T05:21:07;99966.72;;;11.33;82.29
51245;BME280;37840;47.562;18.738;2023-05-14T05:23:33;99968.84;;;11.40;82.03
51245;BME280;37840;47.562;18.738;2023-05-14T05:25:59;99969.47;;;11.44;80.80
51245;BME280;37840;47.562;18.738;2023-05-14T05:28:25;99969.69;;;11.41;81.93
51245;BME280;37840;47.562;18.738;2023-05-14T05:30:50;99962.75;;;11.51;81.64
51245;BME280;37840;47.562;18.738;2023-05-14T05:33:16;99957.50;;;11.62;80.77
51245;BME280;37840;47.562;18.738;2023-05-14T05:35:42;99967.69;;;11.69;80.53
51245;BME280;37840;47.562;18.738;2023-05-14T05:38:09;99960.97;;;11.76;80.74
51245;BME280;37840;47.562;18.738;2023-05-14T05:40:35;99962.37;;;11.69;80.29
51245;BME280;37840;47.562;18.738;2023-05-14T05:43:01;99954.56;;;11.78;79.89
51245;BME280;37840;47.562;18.738;2023-05-14T05:45:27;99958.62;;;11.84;80.13
51245;BME280;37840;47.562;18.738;2023-05-14T05:47:53;99955.81;;;11.86;80.26
51245;BME280;37840;47.562;18.738;2023-05-14T05:50:19;99960.88;;;11.90;80.17
51245;BME280;37840;47.562;18.738;2023-05-14T05:52:45;99963.72;;;11.87;80.12
51245;BME280;37840;47.562;18.738;2023-05-14T05:55:11;99956.37;;;11.91;79.80
51245;BME280;37840;47.562;18.738;2023-05-14T05:57:37;99963.19;;;11.95;80.63
51245;BME280;37840;47.562;18.738;2023-05-14T06:00:03;99962.34;;;11.94;80.35
51245;BME280;37840;47.562;18.738;2023-05-14T06:02:38;99970.84;;;11.99;80.27
51245;BME280;37840;47.562;18.738;2023-05-14T06:05:05;99968.63;;;11.80;80.99
51245;BME280;37840;47.562;18.738;2023-05-14T06:07:31;99964.75;;;11.60;82.11
51245;BME280;37840;47.562;18.738;2023-05-14T06:09:57;99968.31;;;11.48;81.54
51245;BME280;37840;47.562;18.738;2023-05-14T06:12:23;99967.12;;;11.52;81.73
51245;BME280;37840;47.562;18.738;2023-05-14T06:14:53;99967.12;;;11.52;82.00
51245;BME280;37840;47.562;18.738;2023-05-14T06:17:20;99970.50;;;11.67;82.34
51245;BME280;37840;47.562;18.738;2023-05-14T06:19:46;99971.28;;;11.56;82.44
51245;BME280;37840;47.562;18.738;2023-05-14T06:22:12;99971.56;;;11.65;81.55
51245;BME280;37840;47.562;18.738;2023-05-14T06:24:39;99965.94;;;11.56;82.91
51245;BME280;37840;47.562;18.738;2023-05-14T06:27:05;99965.16;;;11.67;82.21
51245;BME280;37840;47.562;18.738;2023-05-14T06:29:31;99973.38;;;11.64;82.21
51245;BME280;37840;47.562;18.738;2023-05-14T06:32:01;99977.72;;;11.78;82.51
51245;BME280;37840;47.562;18.738;2023-05-14T06:34:27;99968.63;;;11.80;82.36
51245;BME280;37840;47.562;18.738;2023-05-14T06:36:53;99969.03;;;11.87;82.11
51245;BME280;37840;47.562;18.738;2023-05-14T06:39:19;99970.47;;;11.80;82.74
51245;BME280;37840;47.562;18.738;2023-05-14T06:41:45;99960.66;;;11.80;82.46
51245;BME280;37840;47.562;18.738;2023-05-14T06:44:11;99964.00;;;11.71;84.77
51245;BME280;37840;47.562;18.738;2023-05-14T06:46:37;99961.72;;;11.78;83.90
51245;BME280;37840;47.562;18.738;2023-05-14T06:49:02;99968.31;;;11.85;84.38
51245;BME280;37840;47.562;18.738;2023-05-14T06:51:28;99960.19;;;11.87;83.72
51245;BME280;37840;47.562;18.738;2023-05-14T06:53:55;99961.72;;;11.91;83.98
51245;BME280;37840;47.562;18.738;2023-05-14T06:56:21;99952.88;;;11.90;84.37
51245;BME280;37840;47.562;18.738;2023-05-14T06:58:47;99962.56;;;11.91;84.98
51245;BME280;37840;47.562;18.738;2023-05-14T07:01:15;99959.78;;;11.93;84.72
51245;BME280;37840;47.562;18.738;2023-05-14T07:03:41;99959.22;;;12.00;85.05
51245;BME280;37840;47.562;18.738;2023-05-14T07:06:07;99945.88;;;12.00;84.40
51245;BME280;37840;47.562;18.738;2023-05-14T07:08:33;99943.22;;;12.00;84.78
51245;BME280;37840;47.562;18.738;2023-05-14T07:10:59;99940.25;;;12.05;85.45
51245;BME280;37840;47.562;18.738;2023-05-14T07:13:25;99938.91;;;12.11;86.11
51245;BME280;37840;47.562;18.738;2023-05-14T07:15:53;99930.34;;;12.18;85.42
51245;BME280;37840;47.562;18.738;2023-05-14T07:18:21;99929.28;;;12.21;85.55
51245;BME280;37840;47.562;18.738;2023-05-14T07:20:47;99930.63;;;12.27;85.39
51245;BME280;37840;47.562;18.738;2023-05-14T07:23:13;99934.88;;;12.29;85.88
51245;BME280;37840;47.562;18.738;2023-05-14T07:25:39;99925.06;;;12.30;86.28
51245;BME280;37840;47.562;18.738;2023-05-14T07:28:05;99930.19;;;12.33;86.22
51245;BME280;37840;47.562;18.738;2023-05-14T07:30:31;99931.75;;;12.35;86.05
51245;BME280;37840;47.562;18.738;2023-05-14T07:32:57;99929.38;;;12.43;85.40
51245;BME280;37840;47.562;18.738;2023-05-14T07:35:23;99928.50;;;12.43;84.22
51245;BME280;37840;47.562;18.738;2023-05-14T07:37:49;99917.50;;;12.48;84.77
51245;BME280;37840;47.562;18.738;2023-05-14T07:40:15;99918.09;;;12.51;85.34
51245;BME280;37840;47.562;18.738;2023-05-14T07:42:41;99918.59;;;12.56;84.91
51245;BME280;37840;47.562;18.738;2023-05-14T07:45:08;99921.12;;;12.58;85.10
51245;BME280;37840;47.562;18.738;2023-05-14T07:47:34;99919.94;;;12.62;84.68
51245;BME280;37840;47.562;18.738;2023-05-14T07:50:00;99910.97;;;12.63;84.21
51245;BME280;37840;47.562;18.738;2023-05-14T07:52:26;99909.03;;;12.65;83.85
51245;BME280;37840;47.562;18.738;2023-05-14T07:54:52;99911.94;;;12.62;83.78
51245;BME280;37840;47.562;18.738;2023-05-14T07:57:18;99911.84;;;12.75;86.88
51245;BME280;37840;47.562;18.738;2023-05-14T07:59:46;99917.31;;;12.73;85.95
51245;BME280;37840;47.562;18.738;2023-05-14T08:02:12;99912.72;;;12.75;85.12
51245;BME280;37840;47.562;18.738;2023-05-14T08:04:38;99907.13;;;12.78;85.16
51245;BME280;37840;47.562;18.738;2023-05-14T08:07:04;99899.38;;;12.75;84.42
51245;BME280;37840;47.562;18.738;2023-05-14T08:09:31;99897.44;;;12.77;84.70
51245;BME280;37840;47.562;18.738;2023-05-14T08:11:57;99900.22;;;12.87;85.35
51245;BME280;37840;47.562;18.738;2023-05-14T08:14:23;99897.66;;;12.85;83.40
51245;BME280;37840;47.562;18.738;2023-05-14T08:16:49;99898.38;;;12.88;85.34
51245;BME280;37840;47.562;18.738;2023-05-14T08:19:15;99897.28;;;12.79;83.44
51245;BME280;37840;47.562;18.738;2023-05-14T08:21:41;99888.06;;;12.83;83.63
51245;BME280;37840;47.562;18.738;2023-05-14T08:24:07;99891.34;;;12.75;86.54
51245;BME280;37840;47.562;18.738;2023-05-14T08:26:33;99881.75;;;12.73;85.59
51245;BME280;37840;47.562;18.738;2023-05-14T08:28:59;99876.78;;;12.68;87.05
51245;BME280;37840;47.562;18.738;2023-05-14T08:31:25;99880.16;;;12.59;85.87
51245;BME280;37840;47.562;18.738;2023-05-14T08:33:51;99869.03;;;12.65;86.06
51245;BME280;37840;47.562;18.738;2023-05-14T08:36:17;99861.88;;;12.65;84.94
51245;BME280;37840;47.562;18.738;2023-05-14T08:38:43;99861.03;;;12.76;87.82
51245;BME280;37840;47.562;18.738;2023-05-14T08:41:11;99858.59;;;12.84;88.65
51245;BME280;37840;47.562;18.738;2023-05-14T08:44:07;99860.91;;;12.89;87.77
51245;BME280;37840;47.562;18.738;2023-05-14T08:46:38;99861.75;;;12.78;86.89
51245;BME280;37840;47.562;18.738;2023-05-14T08:49:21;99861.16;;;12.86;86.36
51245;BME280;37840;47.562;18.738;2023-05-14T08:51:49;99854.94;;;12.85;87.20
51245;BME280;37840;47.562;18.738;2023-05-14T08:54:16;99857.88;;;12.82;87.82
51245;BME280;37840;47.562;18.738;2023-05-14T08:56:48;99852.31;;;12.97;86.91
51245;BME280;37840;47.562;18.738;2023-05-14T08:59:15;99854.13;;;12.96;86.56
51245;BME280;37840;47.562;18.738;2023-05-14T09:01:47;99861.41;;;12.94;85.85
51245;BME280;37840;47.562;18.738;2023-05-14T09:04:21;99865.78;;;12.84;85.99
51245;BME280;37840;47.562;18.738;2023-05-14T09:06:50;99862.38;;;12.93;85.95
51245;BME280;37840;47.562;18.738;2023-05-14T09:09:16;99862.00;;;12.87;85.65
51245;BME280;37840;47.562;18.738;2023-05-14T09:11:46;99871.69;;;12.88;85.37
51245;BME280;37840;47.562;18.738;2023-05-14T09:14:12;99869.91;;;12.99;85.40
51245;BME280;37840;47.562;18.738;2023-05-14T09:16:39;99865.75;;;13.06;85.11
51245;BME280;37840;47.562;18.738;2023-05-14T09:19:07;99865.75;;;13.06;84.65
51245;BME280;37840;47.562;18.738;2023-05-14T09:21:33;99859.31;;;12.98;85.96
51245;BME280;37840;47.562;18.738;2023-05-14T09:23:59;99853.16;;;12.97;87.03
51245;BME280;37840;47.562;18.738;2023-05-14T09:26:26;99842.47;;;12.97;86.44
51245;BME280;37840;47.562;18.738;2023-05-14T09:29:00;99845.25;;;12.96;86.48
51245;BME280;37840;47.562;18.738;2023-05-14T09:31:31;99842.59;;;12.96;86.98
51245;BME280;37840;47.562;18.738;2023-05-14T09:33:58;99837.38;;;12.94;86.78
51245;BME280;37840;47.562;18.738;2023-05-14T09:36:25;99838.12;;;12.96;86.68
51245;BME280;37840;47.562;18.738;2023-05-14T09:38:56;99845.25;;;12.96;87.17
51245;BME280;37840;47.562;18.738;2023-05-14T09:41:23;99836.28;;;12.97;87.88
51245;BME280;37840;47.562;18.738;2023-05-14T09:43:49;99842.00;;;12.92;88.18
51245;BME280;37840;47.562;18.738;2023-05-14T09:46:16;99832.78;;;12.96;88.77
51245;BME280;37840;47.562;18.738;2023-05-14T09:48:42;99835.53;;;13.06;88.69
51245;BME280;37840;47.562;18.738;2023-05-14T09:51:09;99832.03;;;13.05;87.87
51245;BME280;37840;47.562;18.738;2023-05-14T09:53:36;99814.16;;;13.17;87.99
51245;BME280;37840;47.562;18.738;2023-05-14T09:56:02;99814.16;;;13.17;88.73
51245;BME280;37840;47.562;18.738;2023-05-14T09:58:28;99810.75;;;13.15;88.17
51245;BME280;37840;47.562;18.738;2023-05-14T10:00:56;99811.59;;;13.27;87.29
51245;BME280;37840;47.562;18.738;2023-05-14T10:03:24;99798.16;;;13.29;86.35
51245;BME280;37840;47.562;18.738;2023-05-14T10:05:51;99802.41;;;13.31;85.88
51245;BME280;37840;47.562;18.738;2023-05-14T10:08:25;99788.69;;;13.24;86.96
51245;BME280;37840;47.562;18.738;2023-05-14T10:10:57;99770.38;;;13.20;87.00
51245;BME280;37840;47.562;18.738;2023-05-14T10:13:30;99761.62;;;13.06;86.82
51245;BME280;37840;47.562;18.738;2023-05-14T10:16:07;99761.97;;;13.13;87.13
51245;BME280;37840;47.562;18.738;2023-05-14T10:18:41;99764.06;;;13.10;87.26
51245;BME280;37840;47.562;18.738;2023-05-14T10:21:09;99763.97;;;13.00;88.29
51245;BME280;37840;47.562;18.738;2023-05-14T10:23:36;99747.78;;;13.13;88.76
51245;BME280;37840;47.562;18.738;2023-05-14T10:26:03;99748.16;;;13.08;87.09
51245;BME280;37840;47.562;18.738;2023-05-14T10:28:30;99744.19;;;12.91;87.70
51245;BME280;37840;47.562;18.738;2023-05-14T10:30:58;99736.31;;;12.90;88.09
51245;BME280;37840;47.562;18.738;2023-05-14T10:33:26;99733.63;;;12.90;87.43
51245;BME280;37840;47.562;18.738;2023-05-14T10:36:05;99740.06;;;12.98;88.10
51245;BME280;37840;47.562;18.738;2023-05-14T10:38:36;99751.69;;;13.09;88.57
51245;BME280;37840;47.562;18.738;2023-05-14T10:41:23;99745.88;;;13.03;88.67
51245;BME280;37840;47.562;18.738;2023-05-14T10:43:48;99734.72;;;13.10;88.19
51245;BME280;37840;47.562;18.738;2023-05-14T10:46:18;99728.81;;;13.27;88.43
51245;BME280;37840;47.562;18.738;2023-05-14T10:49:10;99733.94;;;13.19;88.94
51245;BME280;37840;47.562;18.738;2023-05-14T10:51:36;99733.72;;;13.11;89.24
51245;BME280;37840;47.562;18.738;2023-05-14T10:54:02;99731.88;;;13.22;89.08
51245;BME280;37840;47.562;18.738;2023-05-14T10:56:28;99730.78;;;13.25;87.92
51245;BME280;37840;47.562;18.738;2023-05-14T10:58:57;99724.13;;;13.31;88.01
51245;BME280;37840;47.562;18.738;2023-05-14T11:01:23;99730.81;;;13.14;88.08
51245;BME280;37840;47.562;18.738;2023-05-14T11:03:52;99722.09;;;13.00;89.95
51245;BME280;37840;47.562;18.738;2023-05-14T11:06:18;99728.56;;;12.87;92.05
51245;BME280;37840;47.562;18.738;2023-05-14T11:08:45;99724.91;;;12.88;91.03
51245;BME280;37840;47.562;18.738;2023-05-14T11:11:11;99724.66;;;13.02;89.80
51245;BME280;37840;47.562;18.738;2023-05-14T11:13:39;99718.84;;;12.97;90.01
51245;BME280;37840;47.562;18.738;2023-05-14T11:16:07;99714.47;;;12.96;90.04
51245;BME280;37840;47.562;18.738;2023-05-14T11:18:33;99721.91;;;12.81;90.83
51245;BME280;37840;47.562;18.738;2023-05-14T11:21:03;99719.00;;;12.84;90.89
51245;BME280;37840;47.562;18.738;2023-05-14T11:23:29;99713.66;;;12.84;91.22
51245;BME280;37840;47.562;18.738;2023-05-14T11:25:55;99717.63;;;12.90;90.64
51245;BME280;37840;47.562;18.738;2023-05-14T11:28:22;99723.81;;;13.01;89.46
51245;BME280;37840;47.562;18.738;2023-05-14T11:30:52;99718.81;;;13.08;89.07
51245;BME280;37840;47.562;18.738;2023-05-14T11:33:19;99722.31;;;13.09;88.32
51245;BME280;37840;47.562;18.738;2023-05-14T11:35:48;99720.38;;;13.11;87.60
51245;BME280;37840;47.562;18.738;2023-05-14T11:38:15;99721.25;;;13.00;88.16
51245;BME280;37840;47.562;18.738;2023-05-14T11:40:42;99715.19;;;13.09;87.38
51245;BME280;37840;47.562;18.738;2023-05-14T11:43:08;99711.41;;;13.12;87.80
51245;BME280;37840;47.562;18.738;2023-05-14T11:45:34;99706.53;;;13.17;87.73
51245;BME280;37840;47.562;18.738;2023-05-14T11:48:02;99703.50;;;13.10;87.58
51245;BME280;37840;47.562;18.738;2023-05-14T11:50:36;99704.00;;;13.04;88.03
51245;BME280;37840;47.562;18.738;2023-05-14T11:53:01;99705.22;;;13.11;89.06
51245;BME280;37840;47.562;18.738;2023-05-14T11:55:27;99705.56;;;13.06;89.40
51245;BME280;37840;47.562;18.738;2023-05-14T11:57:55;99699.44;;;12.95;90.10
51245;BME280;37840;47.562;18.738;2023-05-14T12:00:21;99686.94;;;12.95;90.31
51245;BME280;37840;47.562;18.738;2023-05-14T12:02:48;99688.84;;;13.04;89.95
51245;BME280;37840;47.562;18.738;2023-05-14T12:05:14;99691.50;;;13.04;90.46
51245;BME280;37840;47.562;18.738;2023-05-14T12:07:43;99683.59;;;13.14;90.23
51245;BME280;37840;47.562;18.738;2023-05-14T12:10:10;99675.31;;;13.17;90.47
51245;BME280;37840;47.562;18.738;2023-05-14T12:12:36;99676.53;;;13.24;90.80
51245;BME280;37840;47.562;18.738;2023-05-14T12:15:10;99658.66;;;13.25;90.70
51245;BME280;37840;47.562;18.738;2023-05-14T12:17:37;99665.63;;;13.16;90.91
51245;BME280;37840;47.562;18.738;2023-05-14T12:20:07;99665.75;;;13.15;90.70
51245;BME280;37840;47.562;18.738;2023-05-14T12:22:34;99656.56;;;13.08;92.00
51245;BME280;37840;47.562;18.738;2023-05-14T12:25:00;99644.91;;;13.09;91.95
51245;BME280;37840;47.562;18.738;2023-05-14T12:27:27;99660.69;;;13.12;92.17
51245;BME280;37840;47.562;18.738;2023-05-14T12:30:01;99653.44;;;13.23;92.10
51245;BME280;37840;47.562;18.738;2023-05-14T12:32:32;99645.09;;;13.17;91.67
51245;BME280;37840;47.562;18.738;2023-05-14T12:34:58;99648.38;;;13.20;91.00
51245;BME280;37840;47.562;18.738;2023-05-14T12:37:26;99637.44;;;13.23;90.97
51245;BME280;37840;47.562;18.738;2023-05-14T12:39:52;99636.72;;;13.21;90.79
51245;BME280;37840;47.562;18.738;2023-05-14T12:42:18;99636.72;;;13.21;90.24
51245;BME280;37840;47.562;18.738;2023-05-14T12:44:44;99637.50;;;13.12;87.67
51245;BME280;37840;47.562;18.738;2023-05-14T12:47:10;99631.94;;;13.04;87.70
51245;BME280;37840;47.562;18.738;2023-05-14T12:49:36;99627.59;;;13.03;88.12
51245;BME280;37840;47.562;18.738;2023-05-14T12:52:02;99624.53;;;13.08;88.66
51245;BME280;37840;47.562;18.738;2023-05-14T12:54:28;99620.16;;;13.06;88.75
51245;BME280;37840;47.562;18.738;2023-05-14T12:56:57;99615.84;;;12.94;86.68